sensor_id;sensor_type;location;lat;lon;timestamp;temperature;humidity
9393;DHT22;4736;52.508;13.422;2022-10-30T00:01:03;15.10;1.00
9393;DHT22;4736;52.508;13.422;2022-10-30T00:04:07;15.10;1.00
9393;DHT22;4736;52.508;13.422;2022-10-30T00:07:10;15.10;1.00
9393;DHT22;4736;52.508;13.422;2022-10-30T00:10:14;15.10;1.00
9393;DHT22;4736;52.508;13.422;2022-10-30T00:13:17;15.10;1.00
9393;DHT22;4736;52.508;13.422;2022-10-30T00:16:20;15.10;1.00
9393;DHT22;4736;52.508;13.422;2022-10-30T00:19:25;15.00;1.00
9393;DHT22;4736;52.508;13.422;2022-10-30T00:22:28;15.00;1.00
9393;DHT22;4736;52.508;13.422;2022-10-30T00:25:33;15.00;1.00
9393;DHT22;4736;52.508;13.422;2022-10-30T00:28:36;14.90;1.00
9393;DHT22;4736;52.508;13.422;2022-10-30T00:31:38;14.90;1.00
9393;DHT22;4736;52.508;13.422;2022-10-30T00:34:43;14.90;1.00
9393;DHT22;4736;52.508;13.422;2022-10-30T00:37:46;14.80;1.00
9393;DHT22;4736;52.508;13.422;2022-10-30T00:40:48;14.80;1.00
9393;DHT22;4736;52.508;13.422;2022-10-30T00:43:52;14.80;1.00
9393;DHT22;4736;52.508;13.422;2022-10-30T00:46:54;14.80;1.00
9393;DHT22;4736;52.508;13.422;2022-10-30T00:50:04;14.80;1.00
9393;DHT22;4736;52.508;13.422;2022-10-30T00:53:11;14.70;1.00
9393;DHT22;4736;52.508;13.422;2022-10-30T00:56:19;14.70;1.00
9393;DHT22;4736;52.508;13.422;2022-10-30T00:59:25;14.70;1.00
9393;DHT22;4736;52.508;13.422;2022-10-30T01:02:30;14.60;1.00
9393;DHT22;4736;52.508;13.422;2022-10-30T01:05:35;14.60;1.00
9393;DHT22;4736;52.508;13.422;2022-10-30T01:08:39;14.60;1.00
9393;DHT22;4736;52.508;13.422;2022-10-30T01:11:42;14.60;1.00
9393;DHT22;4736;52.508;13.422;2022-10-30T01:14:49;14.50;1.00
9393;DHT22;4736;52.508;13.422;2022-10-30T01:18:21;14.50;1.00
9393;DHT22;4736;52.508;13.422;2022-10-30T01:21:54;14.50;1.00
9393;DHT22;4736;52.508;13.422;2022-10-30T01:25:11;14.50;1.00
9393;DHT22;4736;52.508;13.422;2022-10-30T01:28:36;14.50;1.00
9393;DHT22;4736;52.508;13.422;2022-10-30T01:31:55;14.40;1.00
9393;DHT22;4736;52.508;13.422;2022-10-30T01:35:16;14.40;1.00
9393;DHT22;4736;52.508;13.422;2022-10-30T01:38:27;14.40;1.00
9393;DHT22;4736;52.508;13.422;2022-10-30T01:41:31;14.30;1.00
9393;DHT22;4736;52.508;13.422;2022-10-30T01:44:34;14.30;1.00
9393;DHT22;4736;52.508;13.422;2022-10-30T01:47:44;14.20;1.00
9393;DHT22;4736;52.508;13.422;2022-10-30T01:50:55;14.20;1.00
9393;DHT22;4736;52.508;13.422;2022-10-30T01:54:08;14.20;1.00
9393;DHT22;4736;52.508;13.422;2022-10-30T01:57:22;14.20;1.00
9393;DHT22;4736;52.508;13.422;2022-10-30T02:00:30;14.20;1.00
9393;DHT22;4736;52.508;13.422;2022-10-30T02:03:33;14.20;1.00
9393;DHT22;4736;52.508;13.422;2022-10-30T02:06:36;14.10;1.00
9393;DHT22;4736;52.508;13.422;2022-10-30T02:09:41;14.10;1.00
9393;DHT22;4736;52.508;13.422;2022-10-30T02:12:44;14.10;1.00
9393;DHT22;4736;52.508;13.422;2022-10-30T02:15:48;14.00;1.00
9393;DHT22;4736;52.508;13.422;2022-10-30T02:18:51;14.00;1.00
9393;DHT22;4736;52.508;13.422;2022-10-30T02:21:55;14.00;1.00
9393;DHT22;4736;52.508;13.422;2022-10-30T02:24:58;14.00;1.00
9393;DHT22;4736;52.508;13.422;2022-10-30T02:28:01;13.90;1.00
9393;DHT22;4736;52.508;13.422;2022-10-30T02:31:04;13.90;1.00
9393;DHT22;4736;52.508;13.422;2022-10-30T02:34:08;13.90;1.00
9393;DHT22;4736;52.508;13.422;2022-10-30T02:37:12;13.80;1.00
9393;DHT22;4736;52.508;13.422;2022-10-30T02:40:15;13.80;1.00
9393;DHT22;4736;52.508;13.422;2022-10-30T02:43:18;13.80;1.00
9393;DHT22;4736;52.508;13.422;2022-10-30T02:46:21;13.80;1.00
9393;DHT22;4736;52.508;13.422;2022-10-30T02:49:24;13.70;1.00
9393;DHT22;4736;52.508;13.422;2022-10-30T02:52:28;13.70;1.00
9393;DHT22;4736;52.508;13.422;2022-10-30T02:55:31;13.70;1.00
9393;DHT22;4736;52.508;13.422;2022-10-30T02:58:34;13.60;1.00
9393;DHT22;4736;52.508;13.422;2022-10-30T03:01:37;13.60;1.00
9393;DHT22;4736;52.508;13.422;2022-10-30T03:04:40;13.60;1.00
9393;DHT22;4736;52.508;13.422;2022-10-30T03:07:45;13.60;1.00
9393;DHT22;4736;52.508;13.422;2022-10-30T03:10:49;13.50;1.00
9393;DHT22;4736;52.508;13.422;2022-10-30T03:13:52;13.50;1.00
9393;DHT22;4736;52.508;13.422;2022-10-30T03:16:55;13.50;1.00
9393;DHT22;4736;52.508;13.422;2022-10-30T03:19:58;13.50;1.00
9393;DHT22;4736;52.508;13.422;2022-10-30T03:23:02;13.50;1.00
9393;DHT22;4736;52.508;13.422;2022-10-30T03:26:05;13.40;1.00
9393;DHT22;4736;52.508;13.422;2022-10-30T03:29:08;13.40;1.00
9393;DHT22;4736;52.508;13.422;2022-10-30T03:32:13;13.40;1.00
9393;DHT22;4736;52.508;13.422;2022-10-30T03:35:15;13.40;1.00
9393;DHT22;4736;52.508;13.422;2022-10-30T03:38:20;13.40;1.00
9393;DHT22;4736;52.508;13.422;2022-10-30T03:41:23;13.30;1.00
9393;DHT22;4736;52.508;13.422;2022-10-30T03:44:27;13.30;1.00
9393;DHT22;4736;52.508;13.422;2022-10-30T03:47:30;13.30;1.00
9393;DHT22;4736;52.508;13.422;2022-10-30T03:50:33;13.30;1.00
9393;DHT22;4736;52.508;13.422;2022-10-30T03:53:37;13.40;1.00
9393;DHT22;4736;52.508;13.422;2022-10-30T03:56:48;13.40;1.00
9393;DHT22;4736;52.508;13.422;2022-10-30T03:59:51;13.30;1.00
9393;DHT22;4736;52.508;13.422;2022-10-30T04:02:53;13.40;1.00
9393;DHT22;4736;52.508;13.422;2022-10-30T04:05:57;13.50;1.00
9393;DHT22;4736;52.508;13.422;2022-10-30T04:09:01;13.60;1.00
9393;DHT22;4736;52.508;13.422;2022-10-30T04:12:05;13.60;1.00
9393;DHT22;4736;52.508;13.422;2022-10-30T04:15:08;13.60;1.00
9393;DHT22;4736;52.508;13.422;2022-10-30T04:18:12;13.70;1.00
9393;DHT22;4736;52.508;13.422;2022-10-30T04:21:16;13.70;1.00
9393;DHT22;4736;52.508;13.422;2022-10-30T04:24:21;13.80;1.00
9393;DHT22;4736;52.508;13.422;2022-10-30T04:27:30;13.80;1.00
9393;DHT22;4736;52.508;13.422;2022-10-30T04:30:33;13.80;1.00
9393;DHT22;4736;52.508;13.422;2022-10-30T04:33:40;13.80;1.00
9393;DHT22;4736;52.508;13.422;2022-10-30T04:36:44;13.80;1.00
9393;DHT22;4736;52.508;13.422;2022-10-30T04:39:48;13.80;1.00
9393;DHT22;4736;52.508;13.422;2022-10-30T04:42:55;13.80;1.00
9393;DHT22;4736;52.508;13.422;2022-10-30T04:46:03;13.80;1.00
9393;DHT22;4736;52.508;13.422;2022-10-30T04:49:06;13.80;1.00
9393;DHT22;4736;52.508;13.422;2022-10-30T04:52:09;13.80;1.00
9393;DHT22;4736;52.508;13.422;2022-10-30T04:55:13;13.90;1.00
9393;DHT22;4736;52.508;13.422;2022-10-30T04:58:16;13.90;1.00
9393;DHT22;4736;52.508;13.422;2022-10-30T05:01:19;13.90;1.00
9393;DHT22;4736;52.508;13.422;2022-10-30T05:04:23;13.90;1.00
9393;DHT22;4736;52.508;13.422;2022-10-30T05:07:26;13.90;1.00
9393;DHT22;4736;52.508;13.422;2022-10-30T05:10:30;13.90;1.00
9393;DHT22;4736;52.508;13.422;2022-10-30T05:13:33;13.90;1.00
9393;DHT22;4736;52.508;13.422;2022-10-30T05:16:36;13.90;1.00
9393;DHT22;4736;52.508;13.422;2022-10-30T05:19:45;14.00;1.00
9393;DHT22;4736;52.508;13.422;2022-10-30T05:22:53;14.00;1.00
9393;DHT22;4736;52.508;13.422;2022-10-30T05:26:00;14.00;1.00
9393;DHT22;4736;52.508;13.422;2022-10-30T05:29:03;14.00;1.00
9393;DHT22;4736;52.508;13.422;2022-10-30T05:32:06;13.90;1.00
9393;DHT22;4736;52.508;13.422;2022-10-30T05:35:09;13.90;1.00
9393;DHT22;4736;52.508;13.422;2022-10-30T05:38:13;13.90;1.00
9393;DHT22;4736;52.508;13.422;2022-10-30T05:41:17;13.90;1.00
9393;DHT22;4736;52.508;13.422;2022-10-30T05:44:20;13.90;1.00
9393;DHT22;4736;52.508;13.422;2022-10-30T05:47:43;13.90;1.00
9393;DHT22;4736;52.508;13.422;2022-10-30T05:50:55;13.90;1.00
9393;DHT22;4736;52.508;13.422;2022-10-30T05:53:58;13.90;1.00
9393;DHT22;4736;52.508;13.422;2022-10-30T05:57:03;14.00;1.00
9393;DHT22;4736;52.508;13.422;2022-10-30T06:00:07;13.90;1.00
9393;DHT22;4736;52.508;13.422;2022-10-30T06:03:11;13.90;1.00
9393;DHT22;4736;52.508;13.422;2022-10-30T06:06:15;13.90;1.00
9393;DHT22;4736;52.508;13.422;2022-10-30T06:09:18;14.00;1.00
9393;DHT22;4736;52.508;13.422;2022-10-30T06:12:22;14.00;1.00
9393;DHT22;4736;52.508;13.422;2022-10-30T06:15:25;14.00;1.00
9393;DHT22;4736;52.508;13.422;2022-10-30T06:18:28;14.00;1.00
9393;DHT22;4736;52.508;13.422;2022-10-30T06:21:31;14.00;1.00
9393;DHT22;4736;52.508;13.422;2022-10-30T06:24:34;14.10;1.00
9393;DHT22;4736;52.508;13.422;2022-10-30T06:27:38;14.00;1.00
9393;DHT22;4736;52.508;13.422;2022-10-30T06:30:41;14.10;1.00
9393;DHT22;4736;52.508;13.422;2022-10-30T06:33:44;14.10;1.00
9393;DHT22;4736;52.508;13.422;2022-10-30T06:36:47;14.10;1.00
9393;DHT22;4736;52.508;13.422;2022-10-30T06:39:50;14.20;1.00
9393;DHT22;4736;52.508;13.422;2022-10-30T06:42:54;14.10;1.00
9393;DHT22;4736;52.508;13.422;2022-10-30T06:45:58;14.10;1.00
9393;DHT22;4736;52.508;13.422;2022-10-30T06:49:01;14.20;1.00
9393;DHT22;4736;52.508;13.422;2022-10-30T06:52:04;14.20;1.00
9393;DHT22;4736;52.508;13.422;2022-10-30T06:55:07;14.20;1.00
9393;DHT22;4736;52.508;13.422;2022-10-30T06:58:12;14.30;1.00
9393;DHT22;4736;52.508;13.422;2022-10-30T07:01:15;14.30;1.00
9393;DHT22;4736;52.508;13.422;2022-10-30T07:04:18;14.30;1.00
9393;DHT22;4736;52.508;13.422;2022-10-30T07:07:21;14.30;1.00
9393;DHT22;4736;52.508;13.422;2022-10-30T07:10:25;14.40;1.00
9393;DHT22;4736;52.508;13.422;2022-10-30T07:13:29;14.40;1.00
9393;DHT22;4736;52.508;13.422;2022-10-30T07:16:32;14.40;1.00
9393;DHT22;4736;52.508;13.422;2022-10-30T07:19:45;14.40;1.00
9393;DHT22;4736;52.508;13.422;2022-10-30T07:22:48;14.50;1.00
9393;DHT22;4736;52.508;13.422;2022-10-30T07:25:51;14.50;1.00
9393;DHT22;4736;52.508;13.422;2022-10-30T07:29:00;14.60;1.00
9393;DHT22;4736;52.508;13.422;2022-10-30T07:32:03;14.60;1.00
9393;DHT22;4736;52.508;13.422;2022-10-30T07:35:08;14.70;1.00
9393;DHT22;4736;52.508;13.422;2022-10-30T07:38:11;14.70;1.00
9393;DHT22;4736;52.508;13.422;2022-10-30T07:41:15;14.80;1.00
9393;DHT22;4736;52.508;13.422;2022-10-30T07:44:20;14.90;1.00
9393;DHT22;4736;52.508;13.422;2022-10-30T07:47:23;15.00;1.00
9393;DHT22;4736;52.508;13.422;2022-10-30T07:50:26;15.00;1.00
9393;DHT22;4736;52.508;13.422;2022-10-30T07:53:29;15.10;1.00
9393;DHT22;4736;52.508;13.422;2022-10-30T07:56:32;15.20;1.00
9393;DHT22;4736;52.508;13.422;2022-10-30T07:59:37;15.20;1.00
9393;DHT22;4736;52.508;13.422;2022-10-30T08:02:43;15.20;1.00
9393;DHT22;4736;52.508;13.422;2022-10-30T08:05:46;15.30;1.00
9393;DHT22;4736;52.508;13.422;2022-10-30T08:08:49;15.30;1.00
9393;DHT22;4736;52.508;13.422;2022-10-30T08:11:52;15.40;1.00
9393;DHT22;4736;52.508;13.422;2022-10-30T08:14:56;15.50;1.00
9393;DHT22;4736;52.508;13.422;2022-10-30T08:17:59;15.70;1.00
9393;DHT22;4736;52.508;13.422;2022-10-30T08:21:02;15.80;1.00
9393;DHT22;4736;52.508;13.422;2022-10-30T08:24:06;15.80;1.00
9393;DHT22;4736;52.508;13.422;2022-10-30T08:27:09;15.90;1.00
9393;DHT22;4736;52.508;13.422;2022-10-30T08:30:13;16.00;1.00
9393;DHT22;4736;52.508;13.422;2022-10-30T08:33:16;16.00;1.00
9393;DHT22;4736;52.508;13.422;2022-10-30T08:36:19;15.90;1.00
9393;DHT22;4736;52.508;13.422;2022-10-30T08:39:22;15.90;1.00
9393;DHT22;4736;52.508;13.422;2022-10-30T08:42:26;15.90;1.00
9393;DHT22;4736;52.508;13.422;2022-10-30T08:45:30;15.90;1.00
9393;DHT22;4736;52.508;13.422;2022-10-30T08:48:33;15.90;1.00
9393;DHT22;4736;52.508;13.422;2022-10-30T08:51:36;16.00;1.00
9393;DHT22;4736;52.508;13.422;2022-10-30T08:54:39;16.10;1.00
9393;DHT22;4736;52.508;13.422;2022-10-30T08:57:42;16.20;1.00
9393;DHT22;4736;52.508;13.422;2022-10-30T09:00:48;16.40;1.00
9393;DHT22;4736;52.508;13.422;2022-10-30T09:03:51;16.60;1.00
9393;DHT22;4736;52.508;13.422;2022-10-30T09:06:54;16.80;1.00
9393;DHT22;4736;52.508;13.422;2022-10-30T09:09:57;17.00;1.00
9393;DHT22;4736;52.508;13.422;2022-10-30T09:13:00;17.20;1.00
9393;DHT22;4736;52.508;13.422;2022-10-30T09:16:06;17.40;1.00
9393;DHT22;4736;52.508;13.422;2022-10-30T09:19:09;17.50;1.00
9393;DHT22;4736;52.508;13.422;2022-10-30T09:22:19;17.50;1.00
9393;DHT22;4736;52.508;13.422;2022-10-30T09:25:22;17.50;1.00
9393;DHT22;4736;52.508;13.422;2022-10-30T09:28:25;17.40;1.00
9393;DHT22;4736;52.508;13.422;2022-10-30T09:31:29;17.40;1.00
9393;DHT22;4736;52.508;13.422;2022-10-30T09:34:32;17.50;1.00
9393;DHT22;4736;52.508;13.422;2022-10-30T09:37:35;17.60;1.00
9393;DHT22;4736;52.508;13.422;2022-10-30T09:41:00;17.80;1.00
9393;DHT22;4736;52.508;13.422;2022-10-30T09:44:19;18.00;1.00
9393;DHT22;4736;52.508;13.422;2022-10-30T09:47:30;18.20;1.00
9393;DHT22;4736;52.508;13.422;2022-10-30T09:50:39;18.40;1.00
9393;DHT22;4736;52.508;13.422;2022-10-30T09:53:56;18.60;1.00
9393;DHT22;4736;52.508;13.422;2022-10-30T09:57:10;18.70;1.00
9393;DHT22;4736;52.508;13.422;2022-10-30T10:00:19;18.90;1.00
9393;DHT22;4736;52.508;13.422;2022-10-30T10:03:36;19.10;1.00
9393;DHT22;4736;52.508;13.422;2022-10-30T10:06:51;19.20;1.00
9393;DHT22;4736;52.508;13.422;2022-10-30T10:09:59;19.40;1.00
9393;DHT22;4736;52.508;13.422;2022-10-30T10:13:03;19.50;1.00
9393;DHT22;4736;52.508;13.422;2022-10-30T10:16:13;19.70;1.00
9393;DHT22;4736;52.508;13.422;2022-10-30T10:19:21;19.80;1.00
9393;DHT22;4736;52.508;13.422;2022-10-30T10:22:26;20.00;1.00
9393;DHT22;4736;52.508;13.422;2022-10-30T10:25:33;20.10;1.00
9393;DHT22;4736;52.508;13.422;2022-10-30T10:28:50;20.20;1.00
9393;DHT22;4736;52.508;13.422;2022-10-30T10:32:04;20.40;1.00
9393;DHT22;4736;52.508;13.422;2022-10-30T10:35:34;20.50;1.00
9393;DHT22;4736;52.508;13.422;2022-10-30T10:38:55;20.70;1.00
9393;DHT22;4736;52.508;13.422;2022-10-30T10:42:15;20.70;1.00
9393;DHT22;4736;52.508;13.422;2022-10-30T10:45:27;20.80;1.00
9393;DHT22;4736;52.508;13.422;2022-10-30T10:49:00;20.90;1.00
9393;DHT22;4736;52.508;13.422;2022-10-30T10:52:09;21.00;1.00
9393;DHT22;4736;52.508;13.422;2022-10-30T10:55:23;21.00;1.00
9393;DHT22;4736;52.508;13.422;2022-10-30T10:58:32;21.10;1.00
9393;DHT22;4736;52.508;13.422;2022-10-30T11:01:39;21.20;1.00
9393;DHT22;4736;52.508;13.422;2022-10-30T11:04:46;21.40;1.00
9393;DHT22;4736;52.508;13.422;2022-10-30T11:07:53;21.30;1.00
9393;DHT22;4736;52.508;13.422;2022-10-30T11:11:01;21.40;1.00
9393;DHT22;4736;52.508;13.422;2022-10-30T11:14:11;21.40;1.00
9393;DHT22;4736;52.508;13.422;2022-10-30T11:17:19;21.50;1.00
9393;DHT22;4736;52.508;13.422;2022-10-30T11:20:30;21.50;1.00
9393;DHT22;4736;52.508;13.422;2022-10-30T11:23:38;21.60;1.00
9393;DHT22;4736;52.508;13.422;2022-10-30T11:26:41;21.60;1.00
9393;DHT22;4736;52.508;13.422;2022-10-30T11:29:49;21.70;1.00
9393;DHT22;4736;52.508;13.422;2022-10-30T11:32:54;21.70;1.00
9393;DHT22;4736;52.508;13.422;2022-10-30T11:36:07;21.70;1.00
9393;DHT22;4736;52.508;13.422;2022-10-30T11:39:24;21.80;1.00
9393;DHT22;4736;52.508;13.422;2022-10-30T11:42:28;21.90;1.00
9393;DHT22;4736;52.508;13.422;2022-10-30T11:45:33;21.90;1.00
9393;DHT22;4736;52.508;13.422;2022-10-30T11:48:38;22.00;1.00
9393;DHT22;4736;52.508;13.422;2022-10-30T11:51:45;22.00;1.00
9393;DHT22;4736;52.508;13.422;2022-10-30T11:54:53;22.10;1.00
9393;DHT22;4736;52.508;13.422;2022-10-30T11:57:57;22.10;1.00
9393;DHT22;4736;52.508;13.422;2022-10-30T12:01:05;22.20;1.00
9393;DHT22;4736;52.508;13.422;2022-10-30T12:04:14;22.30;1.00
9393;DHT22;4736;52.508;13.422;2022-10-30T12:07:23;22.20;1.00
9393;DHT22;4736;52.508;13.422;2022-10-30T12:10:29;22.10;1.00
9393;DHT22;4736;52.508;13.422;2022-10-30T12:13:36;22.10;1.00
9393;DHT22;4736;52.508;13.422;2022-10-30T12:16:47;22.20;1.00
9393;DHT22;4736;52.508;13.422;2022-10-30T12:19:53;22.30;1.00
9393;DHT22;4736;52.508;13.422;2022-10-30T12:22:58;22.30;1.00
9393;DHT22;4736;52.508;13.422;2022-10-30T12:26:11;22.30;1.00
9393;DHT22;4736;52.508;13.422;2022-10-30T12:29:21;22.30;1.00
9393;DHT22;4736;52.508;13.422;2022-10-30T12:32:50;22.30;1.00
9393;DHT22;4736;52.508;13.422;2022-10-30T12:35:55;22.30;1.00
9393;DHT22;4736;52.508;13.422;2022-10-30T12:39:02;22.30;1.00
9393;DHT22;4736;52.508;13.422;2022-10-30T12:42:12;22.30;1.00
9393;DHT22;4736;52.508;13.422;2022-10-30T12:45:20;22.30;1.00
9393;DHT22;4736;52.508;13.422;2022-10-30T12:48:31;22.30;1.00
9393;DHT22;4736;52.508;13.422;2022-10-30T12:51:42;22.40;1.00
9393;DHT22;4736;52.508;13.422;2022-10-30T12:54:50;22.30;1.00
9393;DHT22;4736;52.508;13.422;2022-10-30T12:58:04;22.20;1.00
9393;DHT22;4736;52.508;13.422;2022-10-30T13:01:16;22.20;1.00
9393;DHT22;4736;52.508;13.422;2022-10-30T13:04:28;22.10;1.00
9393;DHT22;4736;52.508;13.422;2022-10-30T13:07:38;22.10;1.00
9393;DHT22;4736;52.508;13.422;2022-10-30T13:10:46;22.10;1.00
9393;DHT22;4736;52.508;13.422;2022-10-30T13:13:53;22.00;1.00
9393;DHT22;4736;52.508;13.422;2022-10-30T13:17:10;22.00;1.00
9393;DHT22;4736;52.508;13.422;2022-10-30T13:20:13;22.00;1.00
9393;DHT22;4736;52.508;13.422;2022-10-30T13:23:23;22.00;1.00
9393;DHT22;4736;52.508;13.422;2022-10-30T13:26:40;22.00;1.00
9393;DHT22;4736;52.508;13.422;2022-10-30T13:29:51;22.00;1.00
9393;DHT22;4736;52.508;13.422;2022-10-30T13:33:02;22.00;1.00
9393;DHT22;4736;52.508;13.422;2022-10-30T13:36:13;22.10;1.00
9393;DHT22;4736;52.508;13.422;2022-10-30T13:39:23;22.00;1.00
9393;DHT22;4736;52.508;13.422;2022-10-30T13:42:37;22.00;1.00
9393;DHT22;4736;52.508;13.422;2022-10-30T13:46:06;21.90;1.00
9393;DHT22;4736;52.508;13.422;2022-10-30T13:49:28;21.90;1.00
9393;DHT22;4736;52.508;13.422;2022-10-30T13:52:36;21.80;1.00
9393;DHT22;4736;52.508;13.422;2022-10-30T13:55:42;21.80;1.00
9393;DHT22;4736;52.508;13.422;2022-10-30T13:58:51;21.80;1.00
9393;DHT22;4736;52.508;13.422;2022-10-30T14:02:16;21.80;1.00
9393;DHT22;4736;52.508;13.422;2022-10-30T14:05:29;21.70;1.00
9393;DHT22;4736;52.508;13.422;2022-10-30T14:08:36;21.70;1.00
9393;DHT22;4736;52.508;13.422;2022-10-30T14:11:41;21.60;1.00
9393;DHT22;4736;52.508;13.422;2022-10-30T14:14:46;21.60;1.00
9393;DHT22;4736;52.508;13.422;2022-10-30T14:18:30;21.50;1.00
9393;DHT22;4736;52.508;13.422;2022-10-30T14:21:50;21.30;1.00
9393;DHT22;4736;52.508;13.422;2022-10-30T14:24:53;21.30;1.00
9393;DHT22;4736;52.508;13.422;2022-10-30T14:27:57;21.20;1.00
9393;DHT22;4736;52.508;13.422;2022-10-30T14:31:02;21.10;1.00
9393;DHT22;4736;52.508;13.422;2022-10-30T14:34:41;21.00;1.00
9393;DHT22;4736;52.508;13.422;2022-10-30T14:37:54;20.90;1.00
9393;DHT22;4736;52.508;13.422;2022-10-30T14:41:30;20.80;1.00
9393;DHT22;4736;52.508;13.422;2022-10-30T14:44:45;20.60;1.00
9393;DHT22;4736;52.508;13.422;2022-10-30T14:47:55;20.50;1.00
9393;DHT22;4736;52.508;13.422;2022-10-30T14:51:13;20.40;1.00
9393;DHT22;4736;52.508;13.422;2022-10-30T14:54:22;20.30;1.00
9393;DHT22;4736;52.508;13.422;2022-10-30T14:57:44;20.20;1.00
9393;DHT22;4736;52.508;13.422;2022-10-30T15:00:49;20.20;1.00
9393;DHT22;4736;52.508;13.422;2022-10-30T15:04:03;20.10;1.00
9393;DHT22;4736;52.508;13.422;2022-10-30T15:07:20;20.10;1.00
9393;DHT22;4736;52.508;13.422;2022-10-30T15:10:28;19.90;1.00
9393;DHT22;4736;52.508;13.422;2022-10-30T15:13:32;19.80;1.00
9393;DHT22;4736;52.508;13.422;2022-10-30T15:16:38;19.70;1.00
9393;DHT22;4736;52.508;13.422;2022-10-30T15:19:42;19.60;1.00
9393;DHT22;4736;52.508;13.422;2022-10-30T15:22:50;19.40;1.00
9393;DHT22;4736;52.508;13.422;2022-10-30T15:25:56;19.30;1.00
9393;DHT22;4736;52.508;13.422;2022-10-30T15:29:04;19.20;1.00
9393;DHT22;4736;52.508;13.422;2022-10-30T15:32:15;19.10;1.00
9393;DHT22;4736;52.508;13.422;2022-10-30T15:35:20;18.90;1.00
9393;DHT22;4736;52.508;13.422;2022-10-30T15:38:24;18.80;1.00
9393;DHT22;4736;52.508;13.422;2022-10-30T15:41:32;18.60;1.00
9393;DHT22;4736;52.508;13.422;2022-10-30T15:44:39;18.50;1.00
9393;DHT22;4736;52.508;13.422;2022-10-30T15:47:45;18.40;1.00
9393;DHT22;4736;52.508;13.422;2022-10-30T15:50:53;18.20;1.00
9393;DHT22;4736;52.508;13.422;2022-10-30T15:54:00;18.10;1.00
9393;DHT22;4736;52.508;13.422;2022-10-30T15:57:05;18.00;1.00
9393;DHT22;4736;52.508;13.422;2022-10-30T16:00:30;17.90;1.00
9393;DHT22;4736;52.508;13.422;2022-10-30T16:03:33;17.80;1.00
9393;DHT22;4736;52.508;13.422;2022-10-30T16:06:36;17.70;1.00
9393;DHT22;4736;52.508;13.422;2022-10-30T16:09:51;17.60;1.00
9393;DHT22;4736;52.508;13.422;2022-10-30T16:12:56;17.50;1.00
9393;DHT22;4736;52.508;13.422;2022-10-30T16:16:02;17.40;1.00
9393;DHT22;4736;52.508;13.422;2022-10-30T16:19:05;17.30;1.00
9393;DHT22;4736;52.508;13.422;2022-10-30T16:22:12;17.20;1.00
9393;DHT22;4736;52.508;13.422;2022-10-30T16:25:18;17.10;1.00
9393;DHT22;4736;52.508;13.422;2022-10-30T16:28:24;17.00;1.00
9393;DHT22;4736;52.508;13.422;2022-10-30T16:31:32;16.90;1.00
9393;DHT22;4736;52.508;13.422;2022-10-30T16:34:36;16.90;1.00
9393;DHT22;4736;52.508;13.422;2022-10-30T16:37:41;16.80;1.00
9393;DHT22;4736;52.508;13.422;2022-10-30T16:40:46;16.70;1.00
9393;DHT22;4736;52.508;13.422;2022-10-30T16:44:09;16.60;1.00
9393;DHT22;4736;52.508;13.422;2022-10-30T16:47:23;16.60;1.00
9393;DHT22;4736;52.508;13.422;2022-10-30T16:50:31;16.50;1.00
9393;DHT22;4736;52.508;13.422;2022-10-30T16:53:35;16.40;1.00
9393;DHT22;4736;52.508;13.422;2022-10-30T16:56:43;16.40;1.00
9393;DHT22;4736;52.508;13.422;2022-10-30T16:59:49;16.30;1.00
9393;DHT22;4736;52.508;13.422;2022-10-30T17:02:55;16.20;1.00
9393;DHT22;4736;52.508;13.422;2022-10-30T17:06:01;16.20;1.00
9393;DHT22;4736;52.508;13.422;2022-10-30T17:09:06;16.10;1.00
9393;DHT22;4736;52.508;13.422;2022-10-30T17:12:14;16.10;1.00
9393;DHT22;4736;52.508;13.422;2022-10-30T17:15:19;16.00;1.00
9393;DHT22;4736;52.508;13.422;2022-10-30T17:18:27;16.00;1.00
9393;DHT22;4736;52.508;13.422;2022-10-30T17:21:37;15.90;1.00
9393;DHT22;4736;52.508;13.422;2022-10-30T17:24:41;15.80;1.00
9393;DHT22;4736;52.508;13.422;2022-10-30T17:27:47;15.80;1.00
9393;DHT22;4736;52.508;13.422;2022-10-30T17:30:50;15.70;1.00
9393;DHT22;4736;52.508;13.422;2022-10-30T17:34:11;15.70;1.00
9393;DHT22;4736;52.508;13.422;2022-10-30T17:37:14;15.60;1.00
9393;DHT22;4736;52.508;13.422;2022-10-30T17:40:17;15.60;1.00
9393;DHT22;4736;52.508;13.422;2022-10-30T17:43:25;15.50;1.00
9393;DHT22;4736;52.508;13.422;2022-10-30T17:46:29;15.50;1.00
9393;DHT22;4736;52.508;13.422;2022-10-30T17:49:32;15.50;1.00
9393;DHT22;4736;52.508;13.422;2022-10-30T17:52:35;15.40;1.00
9393;DHT22;4736;52.508;13.422;2022-10-30T17:55:38;15.30;1.00
9393;DHT22;4736;52.508;13.422;2022-10-30T17:58:43;15.30;1.00
9393;DHT22;4736;52.508;13.422;2022-10-30T18:01:46;15.30;1.00
9393;DHT22;4736;52.508;13.422;2022-10-30T18:04:50;15.30;1.00
9393;DHT22;4736;52.508;13.422;2022-10-30T18:07:55;15.20;1.00
9393;DHT22;4736;52.508;13.422;2022-10-30T18:11:00;15.20;1.00
9393;DHT22;4736;52.508;13.422;2022-10-30T18:14:04;15.20;1.00
9393;DHT22;4736;52.508;13.422;2022-10-30T18:17:08;15.10;1.00
9393;DHT22;4736;52.508;13.422;2022-10-30T18:20:11;15.10;1.00
9393;DHT22;4736;52.508;13.422;2022-10-30T18:23:17;15.10;1.00
9393;DHT22;4736;52.508;13.422;2022-10-30T18:26:41;15.00;1.00
9393;DHT22;4736;52.508;13.422;2022-10-30T18:29:48;15.00;1.00
9393;DHT22;4736;52.508;13.422;2022-10-30T18:32:51;15.00;1.00
9393;DHT22;4736;52.508;13.422;2022-10-30T18:35:54;14.90;1.00
9393;DHT22;4736;52.508;13.422;2022-10-30T18:38:58;14.90;1.00
9393;DHT22;4736;52.508;13.422;2022-10-30T18:42:00;14.80;1.00
9393;DHT22;4736;52.508;13.422;2022-10-30T18:45:18;14.80;1.00
9393;DHT22;4736;52.508;13.422;2022-10-30T18:48:22;14.80;1.00
9393;DHT22;4736;52.508;13.422;2022-10-30T18:51:26;14.80;1.00
9393;DHT22;4736;52.508;13.422;2022-10-30T18:54:29;14.70;1.00
9393;DHT22;4736;52.508;13.422;2022-10-30T18:57:37;14.70;1.00
9393;DHT22;4736;52.508;13.422;2022-10-30T19:00:41;14.70;1.00
9393;DHT22;4736;52.508;13.422;2022-10-30T19:04:07;14.60;1.00
9393;DHT22;4736;52.508;13.422;2022-10-30T19:07:10;14.60;1.00
9393;DHT22;4736;52.508;13.422;2022-10-30T19:10:13;14.50;1.00
9393;DHT22;4736;52.508;13.422;2022-10-30T19:13:18;14.50;1.00
9393;DHT22;4736;52.508;13.422;2022-10-30T19:16:24;14.50;1.00
9393;DHT22;4736;52.508;13.422;2022-10-30T19:19:27;14.50;1.00
9393;DHT22;4736;52.508;13.422;2022-10-30T19:22:30;14.50;1.00
9393;DHT22;4736;52.508;13.422;2022-10-30T19:25:34;14.40;1.00
9393;DHT22;4736;52.508;13.422;2022-10-30T19:28:38;14.40;1.00
9393;DHT22;4736;52.508;13.422;2022-10-30T19:31:43;14.40;1.00
9393;DHT22;4736;52.508;13.422;2022-10-30T19:34:45;14.30;1.00
9393;DHT22;4736;52.508;13.422;2022-10-30T19:37:48;14.30;1.00
9393;DHT22;4736;52.508;13.422;2022-10-30T19:40:51;14.30;1.00
9393;DHT22;4736;52.508;13.422;2022-10-30T19:43:55;14.30;1.00
9393;DHT22;4736;52.508;13.422;2022-10-30T19:46:59;14.20;1.00
9393;DHT22;4736;52.508;13.422;2022-10-30T19:50:17;14.20;1.00
9393;DHT22;4736;52.508;13.422;2022-10-30T19:53:20;14.20;1.00
9393;DHT22;4736;52.508;13.422;2022-10-30T19:56:23;14.20;1.00
9393;DHT22;4736;52.508;13.422;2022-10-30T19:59:26;14.20;1.00
9393;DHT22;4736;52.508;13.422;2022-10-30T20:02:30;14.10;1.00
9393;DHT22;4736;52.508;13.422;2022-10-30T20:05:35;14.10;1.00
9393;DHT22;4736;52.508;13.422;2022-10-30T20:08:40;14.10;1.00
9393;DHT22;4736;52.508;13.422;2022-10-30T20:11:43;14.10;1.00
9393;DHT22;4736;52.508;13.422;2022-10-30T20:14:47;14.00;1.00
9393;DHT22;4736;52.508;13.422;2022-10-30T20:17:59;14.00;1.00
9393;DHT22;4736;52.508;13.422;2022-10-30T20:21:12;14.00;1.00